createdAt,value
2023-04-16T00:02:03.028Z,100268.88
2023-04-16T00:04:29.898Z,100255.75
2023-04-16T00:06:57.007Z,100258.28
2023-04-16T00:09:24.013Z,100269.53
2023-04-16T00:11:51.724Z,100279.81
2023-04-16T00:14:19.768Z,100273.16
2023-04-16T00:16:46.738Z,100249.16
2023-04-16T00:19:14.852Z,100248.19
2023-04-16T00:21:41.524Z,100256.97
2023-04-16T00:24:08.258Z,100265.94
2023-04-16T00:26:34.859Z,100247.91
2023-04-16T00:29:01.860Z,100235.91
2023-04-16T00:31:33.022Z,100233.41
2023-04-16T00:33:59.937Z,100236.91
2023-04-16T00:36:27.979Z,100206.44
2023-04-16T00:38:55.608Z,100210.22
2023-04-16T00:41:26.893Z,100226.69
2023-04-16T00:43:53.673Z,100203.63
2023-04-16T00:46:23.223Z,100185.50
2023-04-16T00:48:51.613Z,100199.19
2023-04-16T00:51:19.279Z,100176.66
2023-04-16T00:53:46.577Z,100147.66
2023-04-16T00:56:14.005Z,100140.78
2023-04-16T00:58:41.972Z,100131.03
2023-04-16T01:01:08.729Z,100131.13
2023-04-16T01:03:41.101Z,100116.06
2023-04-16T01:06:08.585Z,100136.91
2023-04-16T01:08:36.123Z,100148.97
2023-04-16T01:11:03.729Z,100134.75
2023-04-16T01:13:30.751Z,100132.00
2023-04-16T01:15:57.569Z,100161.78
2023-04-16T01:18:26.078Z,100144.78
2023-04-16T01:20:52.869Z,100128.09
2023-04-16T01:23:19.677Z,100127.66
2023-04-16T01:25:47.272Z,100141.31
2023-04-16T01:28:14.102Z,100124.91
2023-04-16T01:30:41.513Z,100112.53
2023-04-16T01:33:12.243Z,100129.84
2023-04-16T01:35:40.943Z,100133.59
2023-04-16T01:38:09.076Z,100103.13
2023-04-16T01:40:36.615Z,100082.09
2023-04-16T01:43:03.750Z,100065.25
2023-04-16T01:45:34.318Z,100039.88
2023-04-16T01:48:01.270Z,100061.00
2023-04-16T01:50:29.733Z,100065.03
2023-04-16T01:52:56.438Z,100052.72
2023-04-16T01:55:23.201Z,100095.19
2023-04-16T01:57:51.218Z,100096.34
2023-04-16T02:00:17.872Z,100093.06
2023-04-16T02:02:44.700Z,100090.22
2023-04-16T02:05:11.393Z,100064.31
2023-04-16T02:07:38.488Z,100060.09
2023-04-16T02:10:07.235Z,100076.69
2023-04-16T02:12:33.853Z,100078.81
2023-04-16T02:15:00.556Z,100075.09
2023-04-16T02:17:27.267Z,100066.88
2023-04-16T02:19:54.061Z,100069.81
2023-04-16T02:22:20.818Z,100052.22
2023-04-16T02:24:47.599Z,100046.41
2023-04-16T02:27:14.181Z,100038.63
2023-04-16T02:29:41.124Z,100022.66
2023-04-16T02:32:07.799Z,100028.41
2023-04-16T02:34:36.113Z,100020.88
2023-04-16T02:37:02.750Z,100045.25
2023-04-16T02:39:29.430Z,100024.75
2023-04-16T02:41:56.278Z,100012.00
2023-04-16T02:44:23.091Z,99997.22
2023-04-16T02:46:49.875Z,99991.09
2023-04-16T02:49:17.967Z,100001.88
2023-04-16T02:51:45.873Z,99983.31
2023-04-16T02:54:12.502Z,99988.25
2023-04-16T02:56:39.137Z,99998.25
2023-04-16T02:59:06.097Z,99962.56
2023-04-16T03:01:32.785Z,99943.22
2023-04-16T03:03:59.996Z,99951.81
2023-04-16T03:06:29.233Z,99945.78
2023-04-16T03:08:55.848Z,99970.69
2023-04-16T03:11:22.633Z,99974.47
2023-04-16T03:13:49.653Z,99978.41
2023-04-16T03:16:16.443Z,99983.56
2023-04-16T03:18:43.158Z,99968.53
2023-04-16T03:21:09.775Z,99963.16
2023-04-16T03:23:37.785Z,99954.75
2023-04-16T03:26:04.514Z,99947.25
2023-04-16T03:28:32.328Z,99946.13
2023-04-16T03:30:58.956Z,99938.84
2023-04-16T03:33:26.268Z,99942.50
2023-04-16T03:35:57.241Z,99933.19
2023-04-16T03:38:25.921Z,99925.75
2023-04-16T03:40:52.511Z,99924.88
2023-04-16T03:43:19.134Z,99941.00
2023-04-16T03:45:47.608Z,99937.72
2023-04-16T03:48:14.516Z,99939.16
2023-04-16T03:50:45.559Z,99940.91
2023-04-16T03:53:13.462Z,99943.88
2023-04-16T03:55:41.020Z,99952.94
2023-04-16T03:58:07.675Z,99950.09
2023-04-16T04:00:35.751Z,99946.44
2023-04-16T04:03:02.709Z,99938.47
2023-04-16T04:05:29.533Z,99929.91
2023-04-16T04:07:56.532Z,99917.75
2023-04-16T04:10:23.695Z,99913.22
2023-04-16T04:12:50.312Z,99935.47
2023-04-16T04:15:17.004Z,99929.94
2023-04-16T04:17:43.796Z,99930.75
2023-04-16T04:20:11.126Z,99931.06
2023-04-16T04:22:37.769Z,99903.53
2023-04-16T04:25:05.686Z,99888.81
2023-04-16T04:27:32.280Z,99900.94
2023-04-16T04:30:00.272Z,99896.53
2023-04-16T04:32:26.931Z,99889.56
2023-04-16T04:34:54.693Z,99892.41
2023-04-16T04:37:21.388Z,99884.09
2023-04-16T04:39:49.147Z,99885.78
2023-04-16T04:42:19.050Z,99898.16
2023-04-16T04:44:46.234Z,99905.50
2023-04-16T04:47:13.597Z,99900.63
2023-04-16T04:49:40.446Z,99897.00
2023-04-16T04:52:07.170Z,99883.63
2023-04-16T04:54:33.974Z,99869.56
2023-04-16T04:57:01.377Z,99876.25
2023-04-16T04:59:28.465Z,99878.00
2023-04-16T05:01:55.522Z,99865.34
2023-04-16T05:04:22.235Z,99868.69
2023-04-16T05:06:50.195Z,99856.56
2023-04-16T05:09:17.508Z,99851.53
2023-04-16T05:11:45.519Z,99850.72
2023-04-16T05:14:12.174Z,99859.81
2023-04-16T05:16:38.897Z,99860.84
2023-04-16T05:19:05.605Z,99853.44
2023-04-16T05:21:32.400Z,99867.28
2023-04-16T05:24:00.510Z,99875.22
2023-04-16T05:26:27.095Z,99875.66
2023-04-16T05:28:53.744Z,99873.19
2023-04-16T05:31:21.961Z,99875.84
2023-04-16T05:33:48.628Z,99884.22
2023-04-16T05:36:16.892Z,99877.91
2023-04-16T05:38:43.480Z,99880.16
2023-04-16T05:41:11.282Z,99910.53
2023-04-16T05:43:37.913Z,99929.34
2023-04-16T05:46:04.761Z,99944.72
2023-04-16T05:48:31.523Z,99959.84
2023-04-16T05:50:58.117Z,99978.97
2023-04-16T05:53:26.175Z,100007.31
2023-04-16T05:55:52.836Z,100015.50
2023-04-16T05:58:19.573Z,100038.13
2023-04-16T06:00:46.284Z,100051.03
2023-04-16T06:03:13.147Z,100069.41
2023-04-16T06:05:40.025Z,100072.41
2023-04-16T06:08:08.193Z,100095.06
2023-04-16T06:10:36.207Z,100117.34
2023-04-16T06:13:03.146Z,100118.38
2023-04-16T06:15:29.823Z,100136.22
2023-04-16T06:17:57.270Z,100161.53
2023-04-16T06:20:25.136Z,100179.69
2023-04-16T06:22:51.839Z,100186.75
2023-04-16T06:25:19.956Z,100210.59
2023-04-16T06:27:46.578Z,100230.28
2023-04-16T06:30:14.621Z,100240.47
2023-04-16T06:32:42.530Z,100248.88
2023-04-16T06:35:09.330Z,100246.91
2023-04-16T06:37:36.979Z,100259.97
2023-04-16T06:40:04.641Z,100261.28
2023-04-16T06:42:31.351Z,100274.31
2023-04-16T06:44:57.979Z,100277.47
2023-04-16T06:47:24.764Z,100274.44
2023-04-16T06:49:51.412Z,100296.59
2023-04-16T06:52:19.539Z,100303.91
2023-04-16T06:54:47.486Z,100304.88
2023-04-16T06:57:14.189Z,100290.16
2023-04-16T06:59:41.050Z,100300.50
2023-04-16T07:02:10.258Z,100309.38
2023-04-16T07:04:37.323Z,100307.19
2023-04-16T07:07:05.422Z,100341.22
2023-04-16T07:09:32.434Z,100372.69
2023-04-16T07:12:00.241Z,100389.63
2023-04-16T07:14:26.872Z,100407.47
2023-04-16T07:16:53.522Z,100430.94
2023-04-16T07:19:20.412Z,100444.19
2023-04-16T07:21:47.087Z,100442.56
2023-04-16T07:24:13.961Z,100469.31
2023-04-16T07:26:40.675Z,100469.09
2023-04-16T07:29:07.384Z,100467.25
2023-04-16T07:31:34.194Z,100477.34
2023-04-16T07:34:00.866Z,100470.19
2023-04-16T07:36:29.631Z,100467.56
2023-04-16T07:38:56.380Z,100488.13
2023-04-16T07:41:23.145Z,100500.81
2023-04-16T07:43:49.850Z,100492.81
2023-04-16T07:46:16.497Z,100495.25
2023-04-16T07:48:43.252Z,100504.94
2023-04-16T07:51:11.287Z,100504.97
2023-04-16T07:53:38.042Z,100512.72
2023-04-16T07:56:04.834Z,100508.38
2023-04-16T07:58:31.453Z,100508.47
2023-04-16T08:00:58.709Z,100515.50
2023-04-16T08:03:25.838Z,100506.69
2023-04-16T08:05:52.711Z,100517.78
2023-04-16T08:08:19.916Z,100513.84
2023-04-16T08:10:46.641Z,100513.69
2023-04-16T08:13:14.690Z,100529.38
2023-04-16T08:15:41.559Z,100518.75
2023-04-16T08:18:12.855Z,100525.13
2023-04-16T08:20:39.730Z,100526.56
2023-04-16T08:23:06.400Z,100519.16
2023-04-16T08:25:34.069Z,100524.31
2023-04-16T08:28:00.762Z,100532.78
2023-04-16T08:30:27.465Z,100529.41
2023-04-16T08:32:54.391Z,100530.09
2023-04-16T08:35:21.395Z,100524.47
2023-04-16T08:37:49.189Z,100530.16
2023-04-16T08:40:16.158Z,100525.91
2023-04-16T08:42:53.099Z,100527.84
2023-04-16T08:45:19.860Z,100524.81
2023-04-16T08:47:48.681Z,100521.09
2023-04-16T08:50:24.165Z,100522.13
2023-04-16T08:52:53.220Z,100511.38
2023-04-16T08:55:27.913Z,100519.00
2023-04-16T08:57:58.622Z,100524.94
2023-04-16T09:00:26.698Z,100522.81
2023-04-16T09:02:54.197Z,100517.09
2023-04-16T09:05:25.669Z,100519.00
2023-04-16T09:07:56.943Z,100517.94
2023-04-16T09:10:25.433Z,100499.25
2023-04-16T09:12:53.546Z,100510.63
2023-04-16T09:15:22.229Z,100508.72
2023-04-16T09:17:50.039Z,100511.94
2023-04-16T09:20:16.677Z,100516.25
2023-04-16T09:22:43.660Z,100507.63
2023-04-16T09:25:12.664Z,100502.69
2023-04-16T09:27:39.709Z,100510.56
2023-04-16T09:30:26.985Z,100499.97
2023-04-16T09:33:23.427Z,100500.53
2023-04-16T09:35:54.230Z,100501.59
2023-04-16T09:38:21.356Z,100507.81
2023-04-16T09:40:48.235Z,100493.97
2023-04-16T09:43:18.719Z,100497.44
2023-04-16T09:45:55.525Z,100495.06
2023-04-16T09:48:30.129Z,100491.78
2023-04-16T09:50:56.937Z,100488.47
2023-04-16T09:53:27.254Z,100483.06
2023-04-16T09:55:58.129Z,100492.69
2023-04-16T09:58:27.378Z,100485.75
2023-04-16T10:01:01.895Z,100478.47
2023-04-16T10:03:32.141Z,100487.59
2023-04-16T10:06:08.890Z,100477.00
2023-04-16T10:08:36.468Z,100475.25
2023-04-16T10:11:03.373Z,100455.47
2023-04-16T10:13:31.240Z,100468.78
2023-04-16T10:16:00.137Z,100464.84
2023-04-16T10:18:27.700Z,100451.88
2023-04-16T10:20:55.132Z,100464.22
2023-04-16T10:23:22.802Z,100454.63
2023-04-16T10:25:50.536Z,100458.38
2023-04-16T10:28:18.725Z,100447.91
2023-04-16T10:30:52.918Z,100445.91
2023-04-16T10:33:25.733Z,100446.81
2023-04-16T10:36:04.960Z,100447.69
2023-04-16T10:38:33.631Z,100450.50
2023-04-16T10:41:04.605Z,100447.97
2023-04-16T10:43:33.209Z,100444.41
2023-04-16T10:46:21.794Z,100444.25
2023-04-16T10:48:50.795Z,100439.53
2023-04-16T10:51:33.365Z,100437.84
2023-04-16T10:54:12.539Z,100440.59
2023-04-16T10:56:40.345Z,100446.53
2023-04-16T10:59:11.749Z,100442.19
2023-04-16T11:01:43.015Z,100441.78
2023-04-16T11:04:22.307Z,100439.16
2023-04-16T11:07:13.847Z,100435.53
2023-04-16T11:09:52.423Z,100440.72
2023-04-16T11:12:33.913Z,100439.06
2023-04-16T11:15:02.149Z,100441.78
2023-04-16T11:17:32.515Z,100434.34
2023-04-16T11:19:59.494Z,100433.03
2023-04-16T11:22:27.020Z,100428.31
2023-04-16T11:24:57.477Z,100432.47
2023-04-16T11:27:25.892Z,100429.66
2023-04-16T11:30:04.372Z,100427.84
2023-04-16T11:32:35.246Z,100422.72
2023-04-16T11:35:03.834Z,100416.88
2023-04-16T11:37:37.882Z,100411.19
2023-04-16T11:40:09.647Z,100414.72
2023-04-16T11:42:39.073Z,100417.66
2023-04-16T11:45:06.822Z,100413.91
2023-04-16T11:47:45.587Z,100414.19
2023-04-16T11:50:19.223Z,100408.31
2023-04-16T11:52:46.424Z,100401.84
2023-04-16T11:55:13.232Z,100404.09
2023-04-16T11:57:39.920Z,100402.28
2023-04-16T12:00:10.692Z,100393.88
2023-04-16T12:02:40.553Z,100398.22
2023-04-16T12:05:36.076Z,100401.84
2023-04-16T12:08:03.902Z,100396.03
2023-04-16T12:10:38.448Z,100396.53
2023-04-16T12:13:12.271Z,100380.19
2023-04-16T12:15:54.099Z,100395.19
2023-04-16T12:18:23.030Z,100387.03
2023-04-16T12:20:53.619Z,100392.47
2023-04-16T12:23:30.826Z,100384.25
2023-04-16T12:26:02.672Z,100380.97
2023-04-16T12:28:38.438Z,100371.09
2023-04-16T12:31:06.102Z,100391.72
2023-04-16T12:33:32.748Z,100379.53
2023-04-16T12:35:59.545Z,100386.41
2023-04-16T12:38:27.087Z,100376.97
2023-04-16T12:40:57.113Z,100381.03
2023-04-16T12:43:24.111Z,100375.06
2023-04-16T12:45:50.788Z,100377.53
2023-04-16T12:48:18.530Z,100367.28
2023-04-16T12:50:45.219Z,100373.75
2023-04-16T12:53:12.072Z,100376.94
2023-04-16T12:55:38.820Z,100368.66
2023-04-16T12:58:05.779Z,100373.50
2023-04-16T13:00:32.816Z,100360.06
2023-04-16T13:02:59.640Z,100367.31
2023-04-16T13:05:26.654Z,100361.66
2023-04-16T13:07:54.249Z,100361.66
2023-04-16T13:10:22.224Z,100365.09
2023-04-16T13:12:49.181Z,100362.47
2023-04-16T13:15:16.185Z,100360.22
2023-04-16T13:17:42.904Z,100357.16
2023-04-16T13:20:10.283Z,100345.84
2023-04-16T13:22:37.067Z,100347.00
2023-04-16T13:25:05.209Z,100347.63
2023-04-16T13:27:32.597Z,100347.41
2023-04-16T13:29:59.306Z,100353.66
2023-04-16T13:32:26.043Z,100343.69
2023-04-16T13:34:52.715Z,100346.28
2023-04-16T13:37:19.333Z,100342.66
2023-04-16T13:39:45.991Z,100338.97
2023-04-16T13:42:12.589Z,100338.09
2023-04-16T13:44:39.204Z,100353.63
2023-04-16T13:47:06.276Z,100341.84
2023-04-16T13:49:36.021Z,100345.53
2023-04-16T13:52:03.184Z,100347.13
2023-04-16T13:54:29.832Z,100354.69
2023-04-16T13:56:56.792Z,100343.91
2023-04-16T13:59:23.665Z,100337.34
2023-04-16T14:01:51.112Z,100342.28
2023-04-16T14:04:17.905Z,100336.88
2023-04-16T14:06:44.576Z,100319.84
2023-04-16T14:09:11.977Z,100322.56
2023-04-16T14:11:38.698Z,100324.19
2023-04-16T14:14:05.520Z,100330.66
2023-04-16T14:16:32.217Z,100320.84
2023-04-16T14:18:58.887Z,100324.41
2023-04-16T14:21:27.064Z,100319.50
2023-04-16T14:23:53.671Z,100323.66
2023-04-16T14:26:20.751Z,100319.69
2023-04-16T14:28:47.733Z,100311.31
2023-04-16T14:31:14.857Z,100312.44
2023-04-16T14:33:41.628Z,100324.75
2023-04-16T14:36:08.347Z,100314.84
2023-04-16T14:38:34.989Z,100308.28
2023-04-16T14:41:01.813Z,100311.16
2023-04-16T14:43:28.676Z,100315.97
2023-04-16T14:45:57.131Z,100312.22
2023-04-16T14:48:23.978Z,100322.50
2023-04-16T14:50:50.880Z,100317.50
2023-04-16T14:53:17.874Z,100319.66
2023-04-16T14:55:44.606Z,100316.41
2023-04-16T14:58:11.236Z,100316.44
2023-04-16T15:00:39.018Z,100317.69
2023-04-16T15:03:06.100Z,100313.53
2023-04-16T15:05:32.906Z,100309.50
2023-04-16T15:08:00.614Z,100314.19
2023-04-16T15:10:27.592Z,100308.66
2023-04-16T15:12:54.197Z,100306.72
2023-04-16T15:15:22.265Z,100298.78
2023-04-16T15:17:51.043Z,100311.91
2023-04-16T15:20:19.348Z,100316.75
2023-04-16T15:22:46.026Z,100309.97
2023-04-16T15:25:12.758Z,100320.13
2023-04-16T15:27:39.412Z,100309.97
2023-04-16T15:30:07.339Z,100318.84
2023-04-16T15:32:34.003Z,100325.22
2023-04-16T15:35:04.144Z,100320.47
2023-04-16T15:37:31.364Z,100313.03
2023-04-16T15:39:59.410Z,100307.69
2023-04-16T15:42:26.038Z,100304.75
2023-04-16T15:44:52.732Z,100320.63
2023-04-16T15:47:19.465Z,100315.16
2023-04-16T15:49:46.102Z,100320.94
2023-04-16T15:52:13.230Z,100328.94
2023-04-16T15:54:39.928Z,100333.13
2023-04-16T15:57:06.591Z,100323.84
2023-04-16T15:59:34.401Z,100330.47
2023-04-16T16:02:01.464Z,100328.97
2023-04-16T16:04:28.416Z,100317.88
2023-04-16T16:06:55.693Z,100327.41
2023-04-16T16:09:26.492Z,100333.03
2023-04-16T16:11:59.733Z,100330.28
2023-04-16T16:14:26.991Z,100324.75
2023-04-16T16:16:55.242Z,100324.00
2023-04-16T16:19:21.865Z,100323.97
2023-04-16T16:21:48.452Z,100318.03
2023-04-16T16:24:15.806Z,100340.28
2023-04-16T16:26:42.487Z,100332.22
2023-04-16T16:29:09.444Z,100342.81
2023-04-16T16:31:36.308Z,100339.41
2023-04-16T16:34:02.979Z,100344.72
2023-04-16T16:36:31.109Z,100346.31
2023-04-16T16:38:57.992Z,100356.34
2023-04-16T16:41:24.593Z,100350.69
2023-04-16T16:43:52.494Z,100353.28
2023-04-16T16:46:19.087Z,100353.41
2023-04-16T16:48:47.833Z,100369.19
2023-04-16T16:51:18.724Z,100368.00
2023-04-16T16:53:46.561Z,100366.75
2023-04-16T16:56:13.190Z,100373.00
2023-04-16T16:58:39.812Z,100382.19
2023-04-16T17:01:06.590Z,100391.13
2023-04-16T17:03:34.532Z,100387.63
2023-04-16T17:06:01.342Z,100392.19
2023-04-16T17:08:29.073Z,100399.00
2023-04-16T17:10:55.846Z,100414.34
2023-04-16T17:13:23.697Z,100410.28
2023-04-16T17:15:50.538Z,100420.13
2023-04-16T17:18:18.818Z,100421.97
2023-04-16T17:20:45.499Z,100416.41
2023-04-16T17:23:12.139Z,100423.25
2023-04-16T17:25:38.774Z,100434.66
2023-04-16T17:28:06.699Z,100440.34
2023-04-16T17:30:33.404Z,100458.41
2023-04-16T17:33:01.338Z,100451.56
2023-04-16T17:35:28.034Z,100463.94
2023-04-16T17:37:54.662Z,100478.66
2023-04-16T17:40:21.249Z,100477.75
2023-04-16T17:42:48.969Z,100490.16
2023-04-16T17:45:16.088Z,100491.06
2023-04-16T17:47:45.433Z,100490.19
2023-04-16T17:50:12.254Z,100502.59
2023-04-16T17:52:38.926Z,100498.78
2023-04-16T17:55:06.651Z,100511.91
2023-04-16T17:57:33.779Z,100514.13
2023-04-16T18:00:01.652Z,100526.59
2023-04-16T18:02:28.423Z,100535.28
2023-04-16T18:04:55.242Z,100535.81
2023-04-16T18:07:22.446Z,100533.09
2023-04-16T18:09:49.583Z,100531.72
2023-04-16T18:12:17.788Z,100536.09
2023-04-16T18:14:46.089Z,100534.34
2023-04-16T18:17:13.094Z,100546.53
2023-04-16T18:19:41.132Z,100543.28
2023-04-16T18:22:07.828Z,100556.69
2023-04-16T18:24:36.427Z,100555.09
2023-04-16T18:27:03.816Z,100557.16
2023-04-16T18:29:33.893Z,100562.53
2023-04-16T18:32:03.697Z,100567.75
2023-04-16T18:34:31.611Z,100582.56
2023-04-16T18:36:58.231Z,100572.53
2023-04-16T18:39:24.986Z,100576.91
2023-04-16T18:41:52.089Z,100581.94
2023-04-16T18:44:21.113Z,100585.19
2023-04-16T18:46:48.484Z,100581.34
2023-04-16T18:49:17.170Z,100599.41
2023-04-16T18:51:43.974Z,100593.47
2023-04-16T18:54:12.323Z,100599.34
2023-04-16T18:56:39.024Z,100606.06
2023-04-16T18:59:05.630Z,100604.53
2023-04-16T19:01:32.277Z,100603.84
2023-04-16T19:03:58.965Z,100606.03
2023-04-16T19:06:27.600Z,100613.72
2023-04-16T19:08:54.269Z,100619.03
2023-04-16T19:11:20.932Z,100615.16
2023-04-16T19:13:47.657Z,100627.75
2023-04-16T19:16:14.769Z,100621.53
2023-04-16T19:18:42.757Z,100621.25
2023-04-16T19:21:10.947Z,100624.75
2023-04-16T19:23:39.056Z,100619.47
2023-04-16T19:26:05.757Z,100629.00
2023-04-16T19:28:32.361Z,100621.00
2023-04-16T19:30:59.022Z,100629.25
2023-04-16T19:33:25.774Z,100629.22
2023-04-16T19:35:52.614Z,100625.00
2023-04-16T19:38:19.229Z,100620.50
2023-04-16T19:40:47.915Z,100623.31
2023-04-16T19:43:15.061Z,100628.34
2023-04-16T19:45:58.142Z,100630.56
2023-04-16T19:48:26.158Z,100627.47
2023-04-16T19:50:54.159Z,100629.28
2023-04-16T19:53:21.458Z,100614.97
2023-04-16T19:55:48.061Z,100617.75
2023-04-16T19:58:14.776Z,100618.47
2023-04-16T20:00:42.085Z,100621.56
2023-04-16T20:03:09.380Z,100625.63
2023-04-16T20:05:36.082Z,100613.88
2023-04-16T20:08:04.274Z,100602.66
2023-04-16T20:10:31.730Z,100607.44
2023-04-16T20:12:58.565Z,100611.75
2023-04-16T20:15:25.177Z,100604.63
2023-04-16T20:17:52.463Z,100610.59
2023-04-16T20:20:20.391Z,100614.88
2023-04-16T20:22:48.146Z,100615.06
2023-04-16T20:25:18.856Z,100607.72
2023-04-16T20:27:45.537Z,100610.91
2023-04-16T20:30:12.902Z,100607.22
2023-04-16T20:32:39.559Z,100611.75
2023-04-16T20:35:10.411Z,100606.25
2023-04-16T20:37:43.324Z,100601.00
2023-04-16T20:40:11.995Z,100601.16
2023-04-16T20:42:39.933Z,100601.31
2023-04-16T20:45:08.956Z,100603.69
2023-04-16T20:47:35.641Z,100607.00
2023-04-16T20:50:04.123Z,100609.03
2023-04-16T20:52:30.769Z,100603.69
2023-04-16T20:54:57.875Z,100595.59
2023-04-16T20:57:24.531Z,100600.72
2023-04-16T20:59:51.446Z,100600.72
2023-04-16T21:02:18.380Z,100604.34
2023-04-16T21:04:45.581Z,100603.91
2023-04-16T21:07:13.423Z,100599.97
2023-04-16T21:09:44.261Z,100599.66
2023-04-16T21:12:12.153Z,100605.38
2023-04-16T21:14:38.754Z,100585.38
2023-04-16T21:17:06.637Z,100583.28
2023-04-16T21:19:33.242Z,100595.31
2023-04-16T21:22:01.153Z,100602.69
2023-04-16T21:24:27.852Z,100591.69
2023-04-16T21:26:54.536Z,100592.69
2023-04-16T21:29:21.126Z,100570.41
2023-04-16T21:31:47.823Z,100575.03
2023-04-16T21:34:14.816Z,100580.56
2023-04-16T21:36:42.691Z,100582.69
2023-04-16T21:39:09.521Z,100590.00
2023-04-16T21:41:36.311Z,100583.50
2023-04-16T21:44:02.985Z,100565.25
2023-04-16T21:46:29.739Z,100568.81
2023-04-16T21:48:56.407Z,100564.94
2023-04-16T21:51:30.175Z,100572.19
2023-04-16T21:53:58.638Z,100581.59
2023-04-16T21:56:25.877Z,100581.75
2023-04-16T21:58:52.579Z,100582.44
2023-04-16T22:01:19.392Z,100582.09
2023-04-16T22:03:50.585Z,100590.44
2023-04-16T22:06:18.807Z,100573.91
2023-04-16T22:08:46.288Z,100567.13
2023-04-16T22:11:12.919Z,100575.88
2023-04-16T22:13:43.410Z,100578.56
2023-04-16T22:16:11.701Z,100571.47
2023-04-16T22:18:38.803Z,100570.69
2023-04-16T22:21:05.567Z,100560.16
2023-04-16T22:23:32.337Z,100552.88
2023-04-16T22:25:59.001Z,100556.56
2023-04-16T22:28:25.756Z,100558.09
2023-04-16T22:30:52.418Z,100548.94
2023-04-16T22:33:19.037Z,100568.22
2023-04-16T22:35:46.170Z,100572.78
2023-04-16T22:38:14.486Z,100565.47
2023-04-16T22:40:41.155Z,100570.13
2023-04-16T22:43:09.004Z,100562.09
2023-04-16T22:45:35.728Z,100555.59
2023-04-16T22:48:02.853Z,100570.53
2023-04-16T22:50:31.294Z,100584.94
2023-04-16T22:52:58.198Z,100575.94
2023-04-16T22:55:24.810Z,100586.13
2023-04-16T22:57:51.400Z,100566.22
2023-04-16T23:00:19.417Z,100565.50
2023-04-16T23:02:46.146Z,100570.34
2023-04-16T23:05:12.942Z,100573.31
2023-04-16T23:07:39.996Z,100563.44
2023-04-16T23:10:08.651Z,100562.94
2023-04-16T23:12:38.703Z,100575.19
2023-04-16T23:15:06.967Z,100567.03
2023-04-16T23:17:33.952Z,100551.56
2023-04-16T23:20:00.908Z,100557.16
2023-04-16T23:22:27.770Z,100554.50
2023-04-16T23:24:54.455Z,100536.75
2023-04-16T23:27:21.171Z,100542.31
2023-04-16T23:29:47.810Z,100546.91
2023-04-16T23:32:14.628Z,100531.91
2023-04-16T23:34:43.266Z,100540.44
2023-04-16T23:37:10.015Z,100534.69
2023-04-16T23:39:36.690Z,100527.69
2023-04-16T23:42:03.504Z,100537.06
2023-04-16T23:44:30.663Z,100529.16
2023-04-16T23:46:57.400Z,100512.09
2023-04-16T23:49:25.535Z,100495.56
2023-04-16T23:51:52.207Z,100516.28
2023-04-16T23:54:20.268Z,100520.09
2023-04-16T23:56:47.056Z,100514.75
2023-04-16T23:59:14.081Z,100516.78
